Autumn — V7QA6 — position and weather

sailwx.info

Track history (hours):
 
Tides and Currents Weather Stations Pressure Air Temp Water Temp Dewpoint Dewpoint Depression Visibility Wind Speed Wind Dir Waves Ship Positions

Autumn

Last reported at 2014-Dec-21 10:30 UTC. Time now 2014-Dec-21 10:42 UTC.
Position N 54°02' E 007°31'.

Length 129 m; draft 6 m.

Type: Tanker. MMSI: 538003323.

Date/timePositionNaut miles runAvg speedWind from/ knotsBaromVisibWave heightAir tempDewpointWater temp
2014-Dec-21 10:30N 54°02' E 007°31'0 0.0
2014-Dec-21 09:30N 54°02' E 007°31'0 0.0
2014-Dec-21 08:30N 54°02' E 007°31'0 0.0
2014-Dec-21 07:33N 54°02' E 007°31'0 0.0
2014-Dec-21 06:24N 54°02' E 007°31'0 0.0
2014-Dec-21 05:33N 54°02' E 007°31'7 6.8
2014-Dec-21 04:33N 54°02' E 007°42'1110.4
2014-Dec-21 03:33N 54°01' E 008°00'1211.7
2014-Dec-21 02:33N 53°60' E 008°20'1313.3
2014-Dec-21 01:33N 53°55' E 008°41'1211.5
2014-Dec-21 00:33N 53°51' E 008°59'10 9.6
2014-Dec-20 23:33N 53°53' E 009°15'10 9.7
2014-Dec-20 22:33N 53°45' E 009°25'10 9.9
2014-Dec-20 21:33N 53°37' E 009°34'1211.7
2014-Dec-20 20:34N 53°33' E 009°53'4 3.4
2014-Dec-20 19:31N 53°30' E 009°57'0 0.0
2014-Dec-20 18:31N 53°30' E 009°57'0 0.0
2014-Dec-20 17:31N 53°30' E 009°57'0 0.0
2014-Dec-20 16:28N 53°30' E 009°57'0 0.0
2014-Dec-20 15:31N 53°30' E 009°57'0 0.0
2014-Dec-20 14:31N 53°30' E 009°57'0 0.0
2014-Dec-20 13:31N 53°30' E 009°57'0 0.0
2014-Dec-20 12:31N 53°30' E 009°57'0 0.0
2014-Dec-20 11:31N 53°30' E 009°57'0 0.0
2014-Dec-20 10:31N 53°30' E 009°57'0 0.0
2014-Dec-20 09:31N 53°30' E 009°57'0 0.0
2014-Dec-20 08:31N 53°30' E 009°57'0 0.0
2014-Dec-20 07:31N 53°30' E 009°57'0 0.0
2014-Dec-20 06:31N 53°30' E 009°57'0 0.0
2014-Dec-20 05:31N 53°30' E 009°57'0 0.0
2014-Dec-20 04:31N 53°30' E 009°57'0 0.0
2014-Dec-20 03:31N 53°30' E 009°57'0 0.0
2014-Dec-20 02:31N 53°30' E 009°57'0 0.0
2014-Dec-20 01:31N 53°30' E 009°57'0 0.0
2014-Dec-20 00:33N 53°30' E 009°57'5 5.1
2014-Dec-19 23:33N 53°33' E 009°50'1212.2
2014-Dec-19 22:33N 53°38' E 009°32'1413.7
2014-Dec-19 21:33N 53°50' E 009°21'1313.2
2014-Dec-19 20:33N 53°51' E 008°58'1312.8
2014-Dec-19 19:33N 53°56' E 008°39'1312.9
2014-Dec-19 18:33N 53°60' E 008°17'1110.8
2014-Dec-19 17:33N 54°01' E 007°59'9 9.1
2014-Dec-19 16:31N 54°05' E 007°44'0 0.1
2014-Dec-19 15:28N 54°05' E 007°45'0 0.0
2014-Dec-19 14:31N 54°05' E 007°45'0 0.0
2014-Dec-19 13:25N 54°05' E 007°45'0 0.0
2014-Dec-19 12:28N 54°05' E 007°45'0 0.0
2014-Dec-19 11:31N 54°05' E 007°45'0 0.0
2014-Dec-19 10:31N 54°05' E 007°45'0 0.0
2014-Dec-19 09:31N 54°05' E 007°45'0 0.1
2014-Dec-19 08:32N 54°05' E 007°44'8 8.1
2014-Dec-19 07:34N 54°09' E 007°33'1414.1
2014-Dec-19 06:34N 54°09' E 007°09'4314.1
2014-Dec-19 03:32N 54°06' E 005°56'1413.7
2014-Dec-19 02:31N 54°05' E 005°32'1313.4
2014-Dec-19 01:33N 54°03' E 005°11'1313.2
2014-Dec-19 00:33N 54°01' E 004°48'14012.6
2014-Dec-18 13:25N 52°04' E 002°41'1713.7
2014-Dec-18 12:09N 51°47' E 002°38'914.7
2014-Dec-18 11:33N 51°40' E 002°29'1514.9
2014-Dec-18 10:34N 51°28' E 002°15'1514.7
2014-Dec-18 09:34N 51°15' E 002°05'1515.3
2014-Dec-18 08:33N 51°05' E 001°45'1515.3
2014-Dec-18 07:33N 50°54' E 001°29'7712.0
2014-Dec-18 01:10N 50°28' W 000°25'812.8
2014-Dec-18 00:33N 50°31' W 000°36'1212.5
2014-Dec-17 23:34N 50°37' W 000°54'6 5.8
2014-Dec-17 22:33N 50°42' W 000°58'10 9.9
2014-Dec-17 21:34N 50°46' W 001°12'7 4.7
2014-Dec-17 20:03N 50°51' W 001°20'0 0.0
2014-Dec-17 19:15N 50°51' W 001°20'0 0.0
2014-Dec-17 17:33N 50°51' W 001°20'0 0.0
2014-Dec-17 16:15N 50°51' W 001°20'0 0.0
2014-Dec-17 14:27N 50°51' W 001°20'0 0.0
2014-Dec-17 13:33N 50°51' W 001°20'0 0.0
2014-Dec-17 11:27N 50°51' W 001°20'0 0.0
2014-Dec-17 10:09N 50°51' W 001°20'0 0.0
2014-Dec-17 09:27N 50°51' W 001°20'0 0.0
2014-Dec-17 08:21N 50°51' W 001°20'0 0.0
2014-Dec-17 06:33N 50°51' W 001°20'0 0.0
2014-Dec-17 05:33N 50°51' W 001°20'0 0.0
2014-Dec-17 03:15N 50°51' W 001°20'0 0.0
2014-Dec-17 01:21N 50°51' W 001°20'0 0.0
2014-Dec-17 00:21N 50°51' W 001°20'0 0.0
2014-Dec-16 21:09N 50°51' W 001°20'0 0.0
2014-Dec-16 19:03N 50°51' W 001°20'0 0.0
2014-Dec-16 17:33N 50°51' W 001°20'0 0.0
2014-Dec-16 14:09N 50°51' W 001°20'0 0.0
2014-Dec-16 13:27N 50°51' W 001°20'3 3.2
2014-Dec-16 12:34N 50°48' W 001°17'8 8.3
2014-Dec-16 11:33N 50°45' W 001°06'2 2.1
2014-Dec-16 10:33N 50°43' W 001°03'0 0.0
2014-Dec-16 09:33N 50°43' W 001°03'0 0.0
2014-Dec-16 08:33N 50°43' W 001°03'0 0.0
2014-Dec-16 07:33N 50°43' W 001°03'3 3.4
2014-Dec-16 06:33N 50°42' W 000°58'1010.0
2014-Dec-16 05:33N 50°36' W 000°45'1312.7
2014-Dec-16 04:33N 50°34' W 000°26'1512.6
2014-Dec-16 03:19N 50°32' W 000°01'911.3
2014-Dec-16 02:32N 50°34' E 000°12'1312.8
2014-Dec-16 01:33N 50°37' E 000°31'1312.7
2014-Dec-16 00:32N 50°44' E 000°49'1413.8
2014-Dec-15 23:32N 50°53' E 001°06'1414.0
2014-Dec-15 22:34N 51°02' E 001°22'1313.4
2014-Dec-15 21:33N 51°10' E 001°38'1212.1
2014-Dec-15 20:34N 51°20' E 001°51'1211.8
2014-Dec-15 19:33N 51°29' E 002°02'1211.9
2014-Dec-15 18:33N 51°38' E 002°15'7712.8
2014-Dec-15 12:33N 52°31' E 003°46'1212.4
2014-Dec-15 11:33N 52°31' E 004°06'1312.6
2014-Dec-15 10:33N 52°29' E 004°26'6 6.3
2014-Dec-15 09:33N 52°28' E 004°37'6 6.3
2014-Dec-15 08:34N 52°26' E 004°46'2 1.4
2014-Dec-15 07:30N 52°24' E 004°47'0 0.0
2014-Dec-15 06:30N 52°24' E 004°47'0 0.0
2014-Dec-15 05:33N 52°24' E 004°47'0 0.0
2014-Dec-15 04:33N 52°24' E 004°47'0 0.0
2014-Dec-15 03:33N 52°24' E 004°47'0 0.0
2014-Dec-15 02:33N 52°24' E 004°47'0 0.0
2014-Dec-15 01:33N 52°24' E 004°47'0 0.0
2014-Dec-15 00:33N 52°24' E 004°47'0 0.0
2014-Dec-14 23:33N 52°24' E 004°47'0 0.0
2014-Dec-14 22:33N 52°24' E 004°47'0 0.0
2014-Dec-14 21:33N 52°24' E 004°47'0 0.0
2014-Dec-14 20:33N 52°24' E 004°47'0 0.0
2014-Dec-14 19:33N 52°24' E 004°47'0 0.0
2014-Dec-14 18:33N 52°24' E 004°47'0 0.0
2014-Dec-14 17:33N 52°24' E 004°47'0 0.0
2014-Dec-14 16:33N 52°24' E 004°47'0 0.0
2014-Dec-14 15:33N 52°24' E 004°47'0 0.0
2014-Dec-14 14:27N 52°24' E 004°47'0 0.0
2014-Dec-14 13:33N 52°24' E 004°47'0 0.0
2014-Dec-14 12:33N 52°24' E 004°47'0 0.0
2014-Dec-14 11:33N 52°24' E 004°47'0 0.0
2014-Dec-14 10:33N 52°24' E 004°47'0 0.0
2014-Dec-14 09:27N 52°24' E 004°47'0 0.0
2014-Dec-14 08:33N 52°24' E 004°47'0 0.0
2014-Dec-14 07:33N 52°24' E 004°47'0 0.0
2014-Dec-14 06:33N 52°24' E 004°47'0 0.0
2014-Dec-14 05:33N 52°24' E 004°47'0 0.0
2014-Dec-14 04:33N 52°24' E 004°47'0 0.0
2014-Dec-14 03:33N 52°24' E 004°47'0 0.0
2014-Dec-14 02:33N 52°24' E 004°47'0 0.0
2014-Dec-14 01:33N 52°24' E 004°47'0 0.0
2014-Dec-14 00:30N 52°24' E 004°47'0 0.3
2014-Dec-13 23:33N 52°24' E 004°47'7 7.2
2014-Dec-13 22:34N 52°28' E 004°36'2 1.9
2014-Dec-13 21:33N 52°28' E 004°33'9 9.5
2014-Dec-13 20:34N 52°29' E 004°18'7 7.0
2014-Dec-13 19:32N 52°28' E 004°06'0 0.0
2014-Dec-13 18:32N 52°28' E 004°06'0 0.1
2014-Dec-13 17:32N 52°27' E 004°06'0 0.1
2014-Dec-13 16:32N 52°27' E 004°06'0 0.1
2014-Dec-13 15:32N 52°27' E 004°06'0 0.0
2014-Dec-13 14:32N 52°27' E 004°06'0 0.0
2014-Dec-13 13:32N 52°27' E 004°06'0 0.0
2014-Dec-13 12:32N 52°27' E 004°06'0 0.0
2014-Dec-13 11:32N 52°27' E 004°06'0 0.1
2014-Dec-13 10:33N 52°27' E 004°06'7 6.7
2014-Dec-13 09:33N 52°26' E 003°56'1513.5
2014-Dec-13 08:28N 52°19' E 003°35'5514.2
2014-Dec-13 04:33N 51°40' E 002°30'1414.1
2014-Dec-13 03:33N 51°30' E 002°15'1413.6
2014-Dec-13 02:33N 51°17' E 002°07'1313.2
2014-Dec-13 01:34N 51°09' E 001°51'1212.2
2014-Dec-13 00:33N 51°00' E 001°37'1111.3
2014-Dec-12 23:33N 50°51' E 001°27'282 8.0
2014-Dec-11 12:19N 51°48' W 005°55'6 8.0
2014-Dec-11 11:32N 51°54' W 005°51'  
Track history (hours):
 
Tides and Currents Weather Stations Pressure Air Temp Water Temp Dewpoint Dewpoint Depression Visibility Wind Speed Wind Dir Waves Ship Positions

Autumn

Last reported at 2014-Dec-21 10:30 UTC. Time now 2014-Dec-21 10:42 UTC.
Position N 54°02' E 007°31'.

Length 129 m; draft 6 m.

Type: Tanker. MMSI: 538003323.

Date/timePositionNaut miles runAvg speedWind from/ knotsBaromVisibWave heightAir tempDewpointWater temp
2014-Dec-21 10:30N 54°02' E 007°31'0 0.0
2014-Dec-21 09:30N 54°02' E 007°31'0 0.0
2014-Dec-21 08:30N 54°02' E 007°31'0 0.0
2014-Dec-21 07:33N 54°02' E 007°31'0 0.0
2014-Dec-21 06:24N 54°02' E 007°31'0 0.0
2014-Dec-21 05:33N 54°02' E 007°31'7 6.8
2014-Dec-21 04:33N 54°02' E 007°42'1110.4
2014-Dec-21 03:33N 54°01' E 008°00'1211.7
2014-Dec-21 02:33N 53°60' E 008°20'1313.3
2014-Dec-21 01:33N 53°55' E 008°41'1211.5
2014-Dec-21 00:33N 53°51' E 008°59'10 9.6
2014-Dec-20 23:33N 53°53' E 009°15'10 9.7
2014-Dec-20 22:33N 53°45' E 009°25'10 9.9
2014-Dec-20 21:33N 53°37' E 009°34'1211.7
2014-Dec-20 20:34N 53°33' E 009°53'4 3.4
2014-Dec-20 19:31N 53°30' E 009°57'0 0.0
2014-Dec-20 18:31N 53°30' E 009°57'0 0.0
2014-Dec-20 17:31N 53°30' E 009°57'0 0.0
2014-Dec-20 16:28N 53°30' E 009°57'0 0.0
2014-Dec-20 15:31N 53°30' E 009°57'0 0.0
2014-Dec-20 14:31N 53°30' E 009°57'0 0.0
2014-Dec-20 13:31N 53°30' E 009°57'0 0.0
2014-Dec-20 12:31N 53°30' E 009°57'0 0.0
2014-Dec-20 11:31N 53°30' E 009°57'0 0.0
2014-Dec-20 10:31N 53°30' E 009°57'0 0.0
2014-Dec-20 09:31N 53°30' E 009°57'0 0.0
2014-Dec-20 08:31N 53°30' E 009°57'0 0.0
2014-Dec-20 07:31N 53°30' E 009°57'0 0.0
2014-Dec-20 06:31N 53°30' E 009°57'0 0.0
2014-Dec-20 05:31N 53°30' E 009°57'0 0.0
2014-Dec-20 04:31N 53°30' E 009°57'0 0.0
2014-Dec-20 03:31N 53°30' E 009°57'0 0.0
2014-Dec-20 02:31N 53°30' E 009°57'0 0.0
2014-Dec-20 01:31N 53°30' E 009°57'0 0.0
2014-Dec-20 00:33N 53°30' E 009°57'5 5.1
2014-Dec-19 23:33N 53°33' E 009°50'1212.2
2014-Dec-19 22:33N 53°38' E 009°32'1413.7
2014-Dec-19 21:33N 53°50' E 009°21'1313.2
2014-Dec-19 20:33N 53°51' E 008°58'1312.8
2014-Dec-19 19:33N 53°56' E 008°39'1312.9
2014-Dec-19 18:33N 53°60' E 008°17'1110.8
2014-Dec-19 17:33N 54°01' E 007°59'9 9.1
2014-Dec-19 16:31N 54°05' E 007°44'0 0.1
2014-Dec-19 15:28N 54°05' E 007°45'0 0.0
2014-Dec-19 14:31N 54°05' E 007°45'0 0.0
2014-Dec-19 13:25N 54°05' E 007°45'0 0.0
2014-Dec-19 12:28N 54°05' E 007°45'0 0.0
2014-Dec-19 11:31N 54°05' E 007°45'0 0.0
2014-Dec-19 10:31N 54°05' E 007°45'0 0.0
2014-Dec-19 09:31N 54°05' E 007°45'0 0.1
2014-Dec-19 08:32N 54°05' E 007°44'8 8.1
2014-Dec-19 07:34N 54°09' E 007°33'1414.1
2014-Dec-19 06:34N 54°09' E 007°09'4314.1
2014-Dec-19 03:32N 54°06' E 005°56'1413.7
2014-Dec-19 02:31N 54°05' E 005°32'1313.4
2014-Dec-19 01:33N 54°03' E 005°11'1313.2
2014-Dec-19 00:33N 54°01' E 004°48'14012.6
2014-Dec-18 13:25N 52°04' E 002°41'1713.7
2014-Dec-18 12:09N 51°47' E 002°38'914.7
2014-Dec-18 11:33N 51°40' E 002°29'1514.9
2014-Dec-18 10:34N 51°28' E 002°15'1514.7
2014-Dec-18 09:34N 51°15' E 002°05'1515.3
2014-Dec-18 08:33N 51°05' E 001°45'1515.3
2014-Dec-18 07:33N 50°54' E 001°29'7712.0
2014-Dec-18 01:10N 50°28' W 000°25'812.8
2014-Dec-18 00:33N 50°31' W 000°36'1212.5
2014-Dec-17 23:34N 50°37' W 000°54'6 5.8
2014-Dec-17 22:33N 50°42' W 000°58'10 9.9
2014-Dec-17 21:34N 50°46' W 001°12'7 4.7
2014-Dec-17 20:03N 50°51' W 001°20'0 0.0
2014-Dec-17 19:15N 50°51' W 001°20'0 0.0
2014-Dec-17 17:33N 50°51' W 001°20'0 0.0
2014-Dec-17 16:15N 50°51' W 001°20'0 0.0
2014-Dec-17 14:27N 50°51' W 001°20'0 0.0
2014-Dec-17 13:33N 50°51' W 001°20'0 0.0
2014-Dec-17 11:27N 50°51' W 001°20'0 0.0
2014-Dec-17 10:09N 50°51' W 001°20'0 0.0
2014-Dec-17 09:27N 50°51' W 001°20'0 0.0
2014-Dec-17 08:21N 50°51' W 001°20'0 0.0
2014-Dec-17 06:33N 50°51' W 001°20'0 0.0
2014-Dec-17 05:33N 50°51' W 001°20'0 0.0
2014-Dec-17 03:15N 50°51' W 001°20'0 0.0
2014-Dec-17 01:21N 50°51' W 001°20'0 0.0
2014-Dec-17 00:21N 50°51' W 001°20'0 0.0
2014-Dec-16 21:09N 50°51' W 001°20'0 0.0
2014-Dec-16 19:03N 50°51' W 001°20'0 0.0
2014-Dec-16 17:33N 50°51' W 001°20'0 0.0
2014-Dec-16 14:09N 50°51' W 001°20'0 0.0
2014-Dec-16 13:27N 50°51' W 001°20'3 3.2
2014-Dec-16 12:34N 50°48' W 001°17'8 8.3
2014-Dec-16 11:33N 50°45' W 001°06'2 2.1
2014-Dec-16 10:33N 50°43' W 001°03'0 0.0
2014-Dec-16 09:33N 50°43' W 001°03'0 0.0
2014-Dec-16 08:33N 50°43' W 001°03'0 0.0
2014-Dec-16 07:33N 50°43' W 001°03'3 3.4
2014-Dec-16 06:33N 50°42' W 000°58'1010.0
2014-Dec-16 05:33N 50°36' W 000°45'1312.7
2014-Dec-16 04:33N 50°34' W 000°26'1512.6
2014-Dec-16 03:19N 50°32' W 000°01'911.3
2014-Dec-16 02:32N 50°34' E 000°12'1312.8
2014-Dec-16 01:33N 50°37' E 000°31'1312.7
2014-Dec-16 00:32N 50°44' E 000°49'1413.8
2014-Dec-15 23:32N 50°53' E 001°06'1414.0
2014-Dec-15 22:34N 51°02' E 001°22'1313.4
2014-Dec-15 21:33N 51°10' E 001°38'1212.1
2014-Dec-15 20:34N 51°20' E 001°51'1211.8
2014-Dec-15 19:33N 51°29' E 002°02'1211.9
2014-Dec-15 18:33N 51°38' E 002°15'7712.8
2014-Dec-15 12:33N 52°31' E 003°46'1212.4
2014-Dec-15 11:33N 52°31' E 004°06'1312.6
2014-Dec-15 10:33N 52°29' E 004°26'6 6.3
2014-Dec-15 09:33N 52°28' E 004°37'6 6.3
2014-Dec-15 08:34N 52°26' E 004°46'2 1.4
2014-Dec-15 07:30N 52°24' E 004°47'0 0.0
2014-Dec-15 06:30N 52°24' E 004°47'0 0.0
2014-Dec-15 05:33N 52°24' E 004°47'0 0.0
2014-Dec-15 04:33N 52°24' E 004°47'0 0.0
2014-Dec-15 03:33N 52°24' E 004°47'0 0.0
2014-Dec-15 02:33N 52°24' E 004°47'0 0.0
2014-Dec-15 01:33N 52°24' E 004°47'0 0.0
2014-Dec-15 00:33N 52°24' E 004°47'0 0.0
2014-Dec-14 23:33N 52°24' E 004°47'0 0.0
2014-Dec-14 22:33N 52°24' E 004°47'0 0.0
2014-Dec-14 21:33N 52°24' E 004°47'0 0.0
2014-Dec-14 20:33N 52°24' E 004°47'0 0.0
2014-Dec-14 19:33N 52°24' E 004°47'0 0.0
2014-Dec-14 18:33N 52°24' E 004°47'0 0.0
2014-Dec-14 17:33N 52°24' E 004°47'0 0.0
2014-Dec-14 16:33N 52°24' E 004°47'0 0.0
2014-Dec-14 15:33N 52°24' E 004°47'0 0.0
2014-Dec-14 14:27N 52°24' E 004°47'0 0.0
2014-Dec-14 13:33N 52°24' E 004°47'0 0.0
2014-Dec-14 12:33N 52°24' E 004°47'0 0.0
2014-Dec-14 11:33N 52°24' E 004°47'0 0.0
2014-Dec-14 10:33N 52°24' E 004°47'0 0.0
2014-Dec-14 09:27N 52°24' E 004°47'0 0.0
2014-Dec-14 08:33N 52°24' E 004°47'0 0.0
2014-Dec-14 07:33N 52°24' E 004°47'0 0.0
2014-Dec-14 06:33N 52°24' E 004°47'0 0.0
2014-Dec-14 05:33N 52°24' E 004°47'0 0.0
2014-Dec-14 04:33N 52°24' E 004°47'0 0.0
2014-Dec-14 03:33N 52°24' E 004°47'0 0.0
2014-Dec-14 02:33N 52°24' E 004°47'0 0.0
2014-Dec-14 01:33N 52°24' E 004°47'0 0.0
2014-Dec-14 00:30N 52°24' E 004°47'0 0.3
2014-Dec-13 23:33N 52°24' E 004°47'7 7.2
2014-Dec-13 22:34N 52°28' E 004°36'2 1.9
2014-Dec-13 21:33N 52°28' E 004°33'9 9.5
2014-Dec-13 20:34N 52°29' E 004°18'7 7.0
2014-Dec-13 19:32N 52°28' E 004°06'0 0.0
2014-Dec-13 18:32N 52°28' E 004°06'0 0.1
2014-Dec-13 17:32N 52°27' E 004°06'0 0.1
2014-Dec-13 16:32N 52°27' E 004°06'0 0.1
2014-Dec-13 15:32N 52°27' E 004°06'0 0.0
2014-Dec-13 14:32N 52°27' E 004°06'0 0.0
2014-Dec-13 13:32N 52°27' E 004°06'0 0.0
2014-Dec-13 12:32N 52°27' E 004°06'0 0.0
2014-Dec-13 11:32N 52°27' E 004°06'0 0.1
2014-Dec-13 10:33N 52°27' E 004°06'7 6.7
2014-Dec-13 09:33N 52°26' E 003°56'1513.5
2014-Dec-13 08:28N 52°19' E 003°35'5514.2
2014-Dec-13 04:33N 51°40' E 002°30'1414.1
2014-Dec-13 03:33N 51°30' E 002°15'1413.6
2014-Dec-13 02:33N 51°17' E 002°07'1313.2
2014-Dec-13 01:34N 51°09' E 001°51'1212.2
2014-Dec-13 00:33N 51°00' E 001°37'1111.3
2014-Dec-12 23:33N 50°51' E 001°27'282 8.0
2014-Dec-11 12:19N 51°48' W 005°55'6 8.0
2014-Dec-11 11:32N 51°54' W 005°51'  

Dump ship's entire track history